createdAt,value
2023-05-19T00:07:32.711Z,85.1283
2023-05-19T00:09:33.672Z,85.1362
2023-05-19T00:10:34.787Z,85.1499
2023-05-19T00:13:37.322Z,85.2009
2023-05-19T00:20:40.060Z,85.2673
2023-05-19T00:21:41.099Z,85.2601
2023-05-19T00:23:42.369Z,85.2587
2023-05-19T00:24:42.912Z,85.2483
2023-05-19T00:25:43.599Z,85.2373
2023-05-19T00:26:44.749Z,85.2347
2023-05-19T00:28:45.662Z,85.2137
2023-05-19T00:29:46.719Z,85.2102
2023-05-19T00:34:49.368Z,85.2025
2023-05-19T00:36:50.043Z,85.1927
2023-05-19T00:37:50.088Z,85.1973
2023-05-19T00:38:50.956Z,85.2013
2023-05-19T00:39:51.941Z,85.1984
2023-05-19T00:40:52.523Z,85.1916
2023-05-19T00:41:52.840Z,85.1867
2023-05-19T00:42:53.300Z,85.1687
2023-05-19T00:43:54.149Z,85.1490
2023-05-19T00:45:54.522Z,85.1124
2023-05-19T00:46:54.772Z,85.0966
2023-05-19T00:48:53.054Z,85.0973
2023-05-19T00:49:53.390Z,85.0854
2023-05-19T00:50:54.376Z,85.0693
2023-05-19T00:51:55.089Z,85.0562
2023-05-19T00:52:57.026Z,85.0476
2023-05-19T01:00:00.524Z,84.9193
2023-05-19T01:05:04.142Z,84.8689
2023-05-19T01:06:04.704Z,84.8634
2023-05-19T01:08:04.549Z,84.8478
2023-05-19T01:10:05.566Z,84.8018
2023-05-19T01:11:06.125Z,84.7700
2023-05-19T01:18:09.122Z,84.5415
2023-05-19T01:25:14.664Z,84.3090
2023-05-19T01:27:15.383Z,84.2782
2023-05-19T01:29:16.427Z,84.2464
2023-05-19T01:37:21.055Z,84.2351
2023-05-19T01:40:21.560Z,84.2404
2023-05-19T01:41:22.479Z,84.2250
2023-05-19T01:42:23.270Z,84.2145
2023-05-19T01:43:23.661Z,84.2000
2023-05-19T01:45:26.309Z,84.1834
2023-05-19T01:47:27.944Z,84.1648
2023-05-19T01:58:35.410Z,84.2070
2023-05-19T01:59:36.504Z,84.2150
2023-05-19T02:00:37.569Z,84.2253
2023-05-19T02:01:38.409Z,84.2336
2023-05-19T02:08:42.002Z,84.3526
2023-05-19T02:10:43.378Z,84.3961
2023-05-19T02:11:44.520Z,84.4117
2023-05-19T02:12:44.664Z,84.4253
2023-05-19T02:13:45.684Z,84.4334
2023-05-19T02:14:46.036Z,84.4441
2023-05-19T02:15:49.077Z,84.4468
2023-05-19T02:16:50.410Z,84.4493
2023-05-19T02:17:51.115Z,84.4371
2023-05-19T02:18:51.537Z,84.4309
2023-05-19T02:19:51.531Z,84.4165
2023-05-19T02:20:52.442Z,84.4086
2023-05-19T02:21:52.988Z,84.4045
2023-05-19T02:22:53.936Z,84.4091
2023-05-19T02:23:54.592Z,84.4119
2023-05-19T02:24:54.639Z,84.4040
2023-05-19T02:25:55.484Z,84.4081
2023-05-19T02:26:55.978Z,84.4061
2023-05-19T02:27:57.350Z,84.4048
2023-05-19T02:28:58.107Z,84.3985
2023-05-19T02:29:58.102Z,84.3938
2023-05-19T02:31:00.069Z,84.3846
2023-05-19T02:32:00.906Z,84.3731
2023-05-19T02:39:03.809Z,84.2881
2023-05-19T02:42:06.234Z,84.2658
2023-05-19T02:44:07.122Z,84.2677
2023-05-19T02:53:19.514Z,84.2063
2023-05-19T02:54:19.723Z,84.2106
2023-05-19T02:55:21.066Z,84.2125
2023-05-19T02:56:22.181Z,84.2168
2023-05-19T02:57:24.166Z,84.2105
2023-05-19T02:58:24.300Z,84.2154
2023-05-19T02:59:25.708Z,84.2215
2023-05-19T03:00:24.937Z,84.2211
2023-05-19T03:01:25.667Z,84.2183
2023-05-19T03:02:26.006Z,84.2210
2023-05-19T03:03:26.651Z,84.2203
2023-05-19T03:04:26.682Z,84.2279
2023-05-19T03:05:28.070Z,84.2363
2023-05-19T03:06:29.066Z,84.2480
2023-05-19T03:11:32.120Z,84.2627
2023-05-19T03:12:32.565Z,84.2570
2023-05-19T03:13:33.489Z,84.2600
2023-05-19T03:15:34.080Z,84.2688
2023-05-19T03:16:35.248Z,84.2633
2023-05-19T03:17:35.593Z,84.2484
2023-05-19T03:18:35.699Z,84.2296
2023-05-19T03:19:37.109Z,84.2031
2023-05-19T03:20:40.922Z,84.1623
2023-05-19T03:21:39.976Z,84.1293
2023-05-19T03:25:42.301Z,83.9429
2023-05-19T03:27:43.017Z,83.8260
2023-05-19T03:28:43.569Z,83.7840
2023-05-19T03:30:43.371Z,83.6809
2023-05-19T03:31:43.492Z,83.6167
2023-05-19T03:32:43.768Z,83.5401
2023-05-19T03:33:44.557Z,83.4692
2023-05-19T03:35:45.741Z,83.3027
2023-05-19T03:36:46.068Z,83.2198
2023-05-19T03:37:46.692Z,83.1277
2023-05-19T03:38:47.801Z,83.0692
2023-05-19T03:44:50.264Z,82.9224
2023-05-19T03:45:50.926Z,82.9292
2023-05-19T03:46:52.717Z,82.9187
2023-05-19T03:47:53.412Z,82.8929
2023-05-19T03:48:54.979Z,82.8755
2023-05-19T03:53:55.600Z,82.6805
2023-05-19T03:54:57.020Z,82.6214
2023-05-19T04:04:01.936Z,82.6687
2023-05-19T04:09:04.212Z,82.8259
2023-05-19T04:10:04.570Z,82.8788
2023-05-19T04:12:07.721Z,82.9718
2023-05-19T04:14:09.666Z,83.0361
2023-05-19T04:15:09.802Z,83.0682
2023-05-19T04:16:11.425Z,83.0811
2023-05-19T04:18:11.872Z,83.0892
2023-05-19T04:20:13.182Z,83.0962
2023-05-19T04:21:13.864Z,83.1082
2023-05-19T04:22:15.057Z,83.1298
2023-05-19T04:23:15.814Z,83.1747
2023-05-19T04:24:17.327Z,83.2172
2023-05-19T04:25:17.490Z,83.2619
2023-05-19T04:26:17.964Z,83.3057
2023-05-19T04:27:19.163Z,83.3482
2023-05-19T04:30:21.929Z,83.5007
2023-05-19T04:31:22.051Z,83.5576
2023-05-19T04:32:22.851Z,83.6177
2023-05-19T04:33:24.270Z,83.6817
2023-05-19T04:34:25.318Z,83.7471
2023-05-19T04:38:26.847Z,84.0338
2023-05-19T04:39:27.489Z,84.1025
2023-05-19T04:40:27.806Z,84.1800
2023-05-19T04:41:28.759Z,84.2449
2023-05-19T04:42:29.883Z,84.3109
2023-05-19T04:43:30.160Z,84.3749
2023-05-19T04:44:31.559Z,84.4363
2023-05-19T04:45:31.738Z,84.4886
2023-05-19T04:47:34.627Z,84.5902
2023-05-19T04:53:39.282Z,84.9255
2023-05-19T04:54:39.511Z,84.9561
2023-05-19T04:55:39.873Z,84.9844
2023-05-19T04:56:40.443Z,85.0257
2023-05-19T05:04:43.595Z,85.2920
2023-05-19T05:05:45.365Z,85.3090
2023-05-19T05:07:45.593Z,85.3006
2023-05-19T05:08:46.688Z,85.2641
2023-05-19T05:09:47.093Z,85.2191
2023-05-19T05:10:47.706Z,85.1595
2023-05-19T05:22:54.908Z,83.9865
2023-05-19T05:23:56.150Z,83.8969
2023-05-19T05:24:56.251Z,83.8332
2023-05-19T05:25:56.650Z,83.8082
2023-05-19T05:28:59.807Z,83.8169
2023-05-19T05:30:00.298Z,83.8299
2023-05-19T05:31:00.518Z,83.8163
2023-05-19T05:32:00.927Z,83.8369
2023-05-19T05:33:01.270Z,83.9026
2023-05-19T05:34:02.333Z,83.9932
2023-05-19T05:35:03.404Z,84.1105
2023-05-19T05:36:04.882Z,84.2372
2023-05-19T05:37:06.278Z,84.3720
2023-05-19T05:38:07.047Z,84.5097
2023-05-19T05:39:08.397Z,84.6546
2023-05-19T05:40:08.807Z,84.7849
2023-05-19T05:41:09.856Z,84.9026
2023-05-19T05:42:11.063Z,85.0203
2023-05-19T05:43:12.534Z,85.1357
2023-05-19T05:44:12.767Z,85.2348
2023-05-19T05:45:13.212Z,85.3138
2023-05-19T05:56:20.348Z,85.7973
2023-05-19T05:57:20.813Z,85.8293
2023-05-19T05:58:21.726Z,85.8455
2023-05-19T05:59:22.713Z,85.8472
2023-05-19T06:01:22.168Z,85.8459
2023-05-19T06:02:23.786Z,85.8582
2023-05-19T06:03:24.719Z,85.8731
2023-05-19T06:04:26.005Z,85.8916
2023-05-19T06:05:26.446Z,85.8991
2023-05-19T06:06:27.486Z,85.8926
2023-05-19T06:07:28.007Z,85.8748
2023-05-19T06:11:07.230Z,85.7469
2023-05-19T06:12:08.276Z,85.7199
2023-05-19T06:13:08.890Z,85.7097
2023-05-19T06:14:09.516Z,85.7083
2023-05-19T06:15:09.782Z,85.7094
2023-05-19T06:17:12.830Z,85.7522
2023-05-19T06:18:13.850Z,85.7917
2023-05-19T06:23:18.183Z,85.8668
2023-05-19T06:24:18.853Z,85.8410
2023-05-19T06:25:18.878Z,85.7990
2023-05-19T06:29:21.377Z,85.7186
2023-05-19T06:30:21.836Z,85.7442
2023-05-19T06:31:22.930Z,85.7668
2023-05-19T06:32:22.919Z,85.7881
2023-05-19T06:33:25.556Z,85.8197
2023-05-19T06:34:25.681Z,85.8637
2023-05-19T06:39:30.351Z,86.0600
2023-05-19T06:40:31.498Z,86.0726
2023-05-19T06:42:32.022Z,86.0752
2023-05-19T06:43:32.396Z,86.0761
2023-05-19T06:44:33.477Z,86.0834
2023-05-19T06:45:34.216Z,86.0957
2023-05-19T06:46:34.346Z,86.1163
2023-05-19T06:47:35.498Z,86.1367
2023-05-19T06:48:35.784Z,86.1536
2023-05-19T06:49:37.761Z,86.1722
2023-05-19T06:54:39.136Z,86.0855
2023-05-19T06:55:54.356Z,86.0512
2023-05-19T06:56:40.725Z,86.0428
2023-05-19T06:58:43.640Z,86.0314
2023-05-19T06:59:43.934Z,86.0344
2023-05-19T07:00:44.883Z,86.0584
2023-05-19T07:09:47.200Z,85.9554
2023-05-19T07:12:48.598Z,85.8150
2023-05-19T07:15:49.701Z,85.6338
2023-05-19T07:16:50.253Z,85.5424
2023-05-19T07:17:52.120Z,85.4585
2023-05-19T07:18:52.507Z,85.3857
2023-05-19T07:19:53.810Z,85.3322
2023-05-19T07:20:54.102Z,85.2882
2023-05-19T07:21:55.620Z,85.2437
2023-05-19T07:22:55.903Z,85.1986
2023-05-19T07:23:57.113Z,85.1530
2023-05-19T07:26:58.849Z,84.9257
2023-05-19T07:27:59.266Z,84.8234
2023-05-19T07:29:12.203Z,84.7017
2023-05-19T07:30:02.156Z,84.5641
2023-05-19T07:31:03.278Z,84.4140
2023-05-19T07:32:04.074Z,84.2593
2023-05-19T07:33:05.340Z,84.1051
2023-05-19T07:34:06.244Z,83.9310
2023-05-19T07:35:06.575Z,83.7599
2023-05-19T07:36:07.984Z,83.6342
2023-05-19T07:39:11.295Z,83.4993
2023-05-19T07:40:12.006Z,83.5142
2023-05-19T07:41:13.022Z,83.5243
2023-05-19T07:42:13.514Z,83.5350
2023-05-19T07:43:14.702Z,83.4907
2023-05-19T07:44:15.581Z,83.3880
2023-05-19T07:45:16.710Z,83.2954
2023-05-19T07:49:18.357Z,82.5548
2023-05-19T07:50:19.310Z,82.2509
2023-05-19T07:51:19.558Z,81.9300
2023-05-19T07:54:21.657Z,81.1486
2023-05-19T07:55:22.106Z,80.9668
2023-05-19T07:56:22.823Z,80.7693
2023-05-19T07:57:23.207Z,80.5061
2023-05-19T07:58:24.073Z,80.2044
2023-05-19T07:59:25.427Z,79.9415
2023-05-19T08:00:26.070Z,79.6527
2023-05-19T08:01:27.134Z,79.4425
2023-05-19T08:02:27.670Z,79.2926
2023-05-19T08:04:29.651Z,79.0694
2023-05-19T08:05:30.303Z,78.9691
2023-05-19T08:06:30.867Z,78.8521
2023-05-19T08:07:31.354Z,78.8459
2023-05-19T08:12:33.891Z,79.3961
2023-05-19T08:13:34.669Z,79.5914
2023-05-19T08:14:34.962Z,79.8013
2023-05-19T08:15:35.478Z,79.9706
2023-05-19T08:16:36.021Z,80.1233
2023-05-19T08:17:36.928Z,80.2249
2023-05-19T08:18:37.766Z,80.2827
2023-05-19T08:21:38.737Z,80.3472
2023-05-19T08:22:38.971Z,80.3429
2023-05-19T08:23:39.902Z,80.3038
2023-05-19T08:24:40.705Z,80.2518
2023-05-19T08:25:42.358Z,80.1912
2023-05-19T08:26:43.232Z,80.1566
2023-05-19T08:27:44.022Z,80.1556
2023-05-19T08:28:44.969Z,80.1731
2023-05-19T08:29:45.977Z,80.2120
2023-05-19T08:33:47.502Z,80.2285
2023-05-19T08:34:47.883Z,80.1970
2023-05-19T08:35:47.922Z,80.1807
2023-05-19T08:36:49.060Z,80.1736
2023-05-19T08:37:49.155Z,80.1599
2023-05-19T08:38:50.117Z,80.1400
2023-05-19T08:39:51.327Z,80.1122
2023-05-19T08:40:51.735Z,80.0988
2023-05-19T08:52:19.439Z,79.0330
2023-05-19T08:54:19.789Z,78.4699
2023-05-19T08:55:20.777Z,78.2060
2023-05-19T08:56:21.872Z,77.9646
2023-05-19T08:57:22.927Z,77.7575
2023-05-19T08:58:23.765Z,77.5496
2023-05-19T08:59:24.600Z,77.3346
2023-05-19T09:00:25.689Z,77.0576
2023-05-19T09:01:25.938Z,76.8002
2023-05-19T09:02:27.057Z,76.4942
2023-05-19T09:03:28.691Z,76.2673
2023-05-19T09:04:29.994Z,76.0269
2023-05-19T09:05:29.465Z,75.8173
2023-05-19T09:06:30.187Z,75.7197
2023-05-19T09:07:31.459Z,75.6289
2023-05-19T09:08:32.582Z,75.4974
2023-05-19T09:09:32.753Z,75.4154
2023-05-19T09:10:33.476Z,75.3922
2023-05-19T09:11:33.616Z,75.4226
2023-05-19T09:12:34.824Z,75.4647
2023-05-19T09:13:36.007Z,75.4950
2023-05-19T09:14:37.208Z,75.4897
2023-05-19T09:32:51.180Z,75.8840
2023-05-19T09:33:51.426Z,75.9848
2023-05-19T09:34:52.551Z,76.0430
2023-05-19T09:35:52.684Z,76.0304
2023-05-19T09:36:53.861Z,76.0160
2023-05-19T09:37:54.132Z,76.0452
2023-05-19T09:38:55.160Z,76.1008
2023-05-19T09:39:56.112Z,76.1421
2023-05-19T09:40:57.048Z,76.1056
2023-05-19T09:41:58.065Z,75.9635
2023-05-19T09:42:59.133Z,75.7946
2023-05-19T09:44:00.189Z,75.6172
2023-05-19T09:45:01.270Z,75.3844
2023-05-19T09:46:02.288Z,75.1417
2023-05-19T09:47:03.246Z,74.9231
2023-05-19T09:48:04.171Z,74.7460
2023-05-19T09:49:04.186Z,74.5838
2023-05-19T09:50:05.089Z,74.3899
2023-05-19T09:51:06.206Z,74.2364
2023-05-19T09:52:07.214Z,74.1069
2023-05-19T09:53:08.191Z,73.9974
2023-05-19T09:54:08.298Z,73.8955
2023-05-19T09:55:09.342Z,73.7352
2023-05-19T09:56:09.365Z,73.5909
2023-05-19T09:57:10.384Z,73.4333
2023-05-19T10:20:28.893Z,70.3693
2023-05-19T10:21:30.063Z,70.4211
2023-05-19T10:22:31.270Z,70.5319
2023-05-19T10:23:32.049Z,70.5644
2023-05-19T10:24:33.162Z,70.5050
2023-05-19T10:25:34.425Z,70.3751
2023-05-19T10:26:34.331Z,70.2322
2023-05-19T10:27:35.271Z,70.0321
2023-05-19T10:28:36.190Z,69.7659
2023-05-19T10:29:37.098Z,69.6088
2023-05-19T10:30:38.150Z,69.5073
2023-05-19T10:31:39.319Z,69.4079
2023-05-19T10:32:39.397Z,69.3573
2023-05-19T10:33:40.432Z,69.3213
2023-05-19T10:34:41.277Z,69.3788
2023-05-19T10:35:42.199Z,69.5044
2023-05-19T10:36:42.266Z,69.6141
2023-05-19T10:37:43.449Z,69.7044
2023-05-19T10:38:44.527Z,69.7233
2023-05-19T10:39:45.094Z,69.7760
2023-05-19T10:40:46.093Z,69.8389
2023-05-19T10:41:47.063Z,69.8930
2023-05-19T10:42:46.928Z,69.9695
2023-05-19T10:43:48.182Z,70.0411
2023-05-19T10:44:48.733Z,70.1243
2023-05-19T10:45:48.944Z,70.1776
2023-05-19T10:46:49.474Z,70.2351
2023-05-19T11:03:04.226Z,68.2052
2023-05-19T11:04:05.989Z,68.0557
2023-05-19T11:05:06.457Z,67.9078
2023-05-19T11:06:07.481Z,67.7909
2023-05-19T11:07:08.644Z,67.7700
2023-05-19T11:08:09.668Z,67.8539
2023-05-19T11:09:10.695Z,67.9521
2023-05-19T11:10:10.895Z,68.0794
2023-05-19T11:11:11.829Z,68.2987
2023-05-19T11:12:12.754Z,68.5278
2023-05-19T11:13:14.909Z,68.6886
2023-05-19T11:14:14.737Z,68.7671
2023-05-19T11:15:15.718Z,68.7804
2023-05-19T11:16:16.889Z,68.7410
2023-05-19T11:17:18.078Z,68.6637
2023-05-19T11:18:18.785Z,68.5816
2023-05-19T11:19:20.002Z,68.4260
2023-05-19T11:20:20.109Z,68.2133
2023-05-19T11:21:21.227Z,67.9784
2023-05-19T11:22:22.152Z,67.7140
2023-05-19T11:23:23.442Z,67.4974
2023-05-19T11:24:23.448Z,67.3554
2023-05-19T11:25:24.435Z,67.2902
2023-05-19T11:26:25.271Z,67.3222
2023-05-19T11:27:26.153Z,67.3946
2023-05-19T11:28:26.992Z,67.5171
2023-05-19T11:29:27.858Z,67.6625
2023-05-19T11:30:28.849Z,67.8555
2023-05-19T11:31:29.777Z,67.9610
2023-05-19T11:32:30.955Z,67.9368
2023-05-19T11:33:30.813Z,68.0330
2023-05-19T11:34:31.673Z,68.2161
2023-05-19T11:35:35.444Z,68.3546
2023-05-19T11:36:32.809Z,68.4210
2023-05-19T11:37:33.576Z,68.3657
2023-05-19T11:38:34.388Z,68.2652
2023-05-19T11:39:35.401Z,68.1365
2023-05-19T11:40:36.222Z,67.9566
2023-05-19T11:41:37.267Z,67.7439
2023-05-19T11:42:38.268Z,67.3160
2023-05-19T11:43:39.275Z,66.7449
2023-05-19T11:44:40.482Z,66.0436
2023-05-19T11:45:41.188Z,65.2805
2023-05-19T11:46:42.352Z,64.4024
2023-05-19T11:48:00.895Z,63.4981
2023-05-19T11:48:44.021Z,62.8041
2023-05-19T11:49:44.862Z,62.2440
2023-05-19T11:50:45.896Z,62.0045
2023-05-19T11:51:47.015Z,61.7471
2023-05-19T11:52:48.180Z,61.4402
2023-05-19T11:53:48.381Z,61.1145
2023-05-19T11:54:49.442Z,60.8886
2023-05-19T11:55:50.932Z,60.8372
2023-05-19T11:56:50.775Z,60.7189
2023-05-19T11:58:02.903Z,60.5075
2023-05-19T11:58:52.374Z,60.2602
2023-05-19T11:59:53.392Z,59.9517
2023-05-19T12:00:54.448Z,59.6463
2023-05-19T12:01:54.612Z,59.3661
2023-05-19T12:02:54.707Z,59.0846
2023-05-19T12:03:54.796Z,58.7062
2023-05-19T12:04:55.831Z,58.3033
2023-05-19T12:05:56.618Z,58.0434
2023-05-19T12:06:56.459Z,57.8585
2023-05-19T12:07:57.674Z,57.6978
2023-05-19T12:08:58.609Z,57.6555
2023-05-19T12:09:59.670Z,57.6556
2023-05-19T12:11:00.531Z,57.6188
2023-05-19T12:12:01.493Z,57.5398
2023-05-19T12:13:02.441Z,57.4629
2023-05-19T12:14:03.411Z,57.5771
2023-05-19T12:15:04.334Z,57.7188
2023-05-19T12:16:05.402Z,57.9196
2023-05-19T12:17:06.533Z,58.2105
2023-05-19T12:18:07.748Z,58.4265
2023-05-19T12:19:08.678Z,58.5609
2023-05-19T12:20:09.916Z,58.7019
2023-05-19T12:21:09.877Z,58.8413
2023-05-19T12:22:10.058Z,58.8404
2023-05-19T12:23:10.082Z,58.5954
2023-05-19T12:24:10.878Z,58.3350
2023-05-19T12:25:11.778Z,58.1492
2023-05-19T12:26:11.881Z,57.9241
2023-05-19T12:27:12.987Z,57.6856
2023-05-19T12:28:14.808Z,57.3968
2023-05-19T12:38:22.091Z,55.6218
2023-05-19T12:39:22.985Z,55.5754
2023-05-19T12:40:24.056Z,55.6122
2023-05-19T12:41:25.228Z,55.6739
2023-05-19T12:42:26.152Z,55.9868
2023-05-19T12:43:27.320Z,56.3554
2023-05-19T12:44:28.301Z,56.7677
2023-05-19T12:45:29.174Z,57.1703
2023-05-19T12:46:30.406Z,57.5436
2023-05-19T12:47:31.353Z,57.7107
2023-05-19T12:48:31.436Z,57.8719
2023-05-19T12:49:32.518Z,58.1132
2023-05-19T12:50:32.966Z,58.4786
2023-05-19T12:51:33.494Z,58.8697
2023-05-19T12:52:34.149Z,59.2773
2023-05-19T12:53:35.080Z,59.7133
2023-05-19T12:54:36.296Z,60.1340
2023-05-19T12:57:37.457Z,61.2323
2023-05-19T12:58:37.496Z,61.5651
2023-05-19T12:59:38.992Z,61.8532
2023-05-19T13:00:39.150Z,62.1111
2023-05-19T13:01:40.581Z,62.2578
2023-05-19T13:02:41.543Z,62.1818
2023-05-19T13:03:42.060Z,61.8325
2023-05-19T13:04:43.173Z,61.6990
2023-05-19T13:05:44.218Z,61.6216
2023-05-19T13:06:45.168Z,61.5800
2023-05-19T13:07:45.979Z,61.4344
2023-05-19T13:08:46.823Z,61.1155
2023-05-19T13:09:47.055Z,60.9475
2023-05-19T13:10:47.935Z,60.8445
2023-05-19T13:11:48.835Z,60.8593
2023-05-19T13:12:49.849Z,60.9649
2023-05-19T13:13:49.962Z,61.1654
2023-05-19T13:14:51.660Z,61.4749
2023-05-19T13:15:51.191Z,61.7280
2023-05-19T13:16:52.275Z,62.2572
2023-05-19T13:17:53.273Z,62.9898
2023-05-19T13:18:53.670Z,63.7088
2023-05-19T13:19:54.382Z,64.3930
2023-05-19T13:20:55.314Z,65.0175
2023-05-19T13:21:56.467Z,65.5845
2023-05-19T13:22:57.418Z,66.0721
2023-05-19T13:23:58.486Z,66.5187
2023-05-19T13:24:59.442Z,66.9022
2023-05-19T13:26:00.053Z,67.2716
2023-05-19T13:27:00.263Z,67.5663
2023-05-19T13:28:01.560Z,67.7939
2023-05-19T13:29:02.502Z,67.9248
2023-05-19T13:30:03.418Z,67.9694
2023-05-19T13:31:04.425Z,68.0129
2023-05-19T13:32:04.397Z,68.0292
2023-05-19T13:33:05.652Z,68.0120
2023-05-19T13:34:06.204Z,68.0016
2023-05-19T13:35:07.004Z,68.0526
2023-05-19T13:36:07.378Z,68.1439
2023-05-19T13:48:16.355Z,69.8754
2023-05-19T13:49:17.360Z,69.9001
2023-05-19T13:50:18.344Z,69.9038
2023-05-19T13:51:19.302Z,69.8918
2023-05-19T13:52:20.380Z,69.8393
2023-05-19T13:53:21.450Z,69.7665
2023-05-19T13:54:22.677Z,69.6808
2023-05-19T13:55:23.729Z,69.5752
2023-05-19T13:56:24.555Z,69.4974
2023-05-19T13:57:25.505Z,69.4823
2023-05-19T13:58:26.438Z,69.5500
2023-05-19T13:59:27.448Z,69.6730
2023-05-19T14:00:27.865Z,69.8283
2023-05-19T14:01:28.022Z,70.0108
2023-05-19T14:13:43.685Z,73.1753
2023-05-19T14:14:43.699Z,73.3586
2023-05-19T14:15:43.794Z,73.5343
2023-05-19T14:16:45.300Z,73.7230
2023-05-19T14:17:46.390Z,73.8737
2023-05-19T14:18:46.475Z,74.0177
2023-05-19T14:19:47.658Z,74.1518
2023-05-19T14:20:48.676Z,74.2155
2023-05-19T14:21:49.687Z,74.2511
2023-05-19T14:22:50.675Z,74.2745
2023-05-19T14:23:51.919Z,74.2846
2023-05-19T14:24:52.680Z,74.2910
2023-05-19T14:25:53.777Z,74.2769
2023-05-19T14:26:53.899Z,74.2615
2023-05-19T14:27:55.044Z,74.2128
2023-05-19T14:28:56.247Z,74.1705
2023-05-19T14:29:57.138Z,74.1433
2023-05-19T14:30:57.272Z,74.1533
2023-05-19T14:31:58.555Z,74.1821
2023-05-19T14:32:59.589Z,74.2281
2023-05-19T14:34:00.786Z,74.2849
2023-05-19T14:35:01.727Z,74.3486
2023-05-19T14:36:02.783Z,74.3951
2023-05-19T14:37:03.840Z,74.4198
2023-05-19T14:38:04.998Z,74.4380
2023-05-19T14:39:05.771Z,74.4787
2023-05-19T14:40:08.813Z,74.5222
2023-05-19T14:45:10.230Z,74.6971
2023-05-19T15:16:34.241Z,74.3153
2023-05-19T15:17:35.498Z,74.2921
2023-05-19T15:18:36.662Z,74.2991
2023-05-19T15:19:36.894Z,74.3324
2023-05-19T15:20:40.278Z,74.3872
2023-05-19T15:21:40.550Z,74.5028
2023-05-19T15:23:41.261Z,74.7877
2023-05-19T15:28:03.122Z,75.6078
2023-05-19T15:29:04.370Z,75.7832
2023-05-19T15:30:05.139Z,75.9448
2023-05-19T15:32:06.197Z,76.2066
2023-05-19T15:34:07.636Z,76.4453
2023-05-19T15:35:07.938Z,76.5496
2023-05-19T15:36:08.221Z,76.6337
2023-05-19T15:37:09.674Z,76.7128
2023-05-19T15:38:09.366Z,76.7768
2023-05-19T15:39:10.697Z,76.8323
2023-05-19T15:40:11.974Z,76.8796
2023-05-19T15:46:15.456Z,76.9223
2023-05-19T15:47:15.968Z,76.9231
2023-05-19T15:48:17.960Z,76.9294
2023-05-19T15:49:18.248Z,76.9235
2023-05-19T15:52:21.286Z,76.9052
2023-05-19T15:53:22.558Z,76.9088
2023-05-19T15:54:23.332Z,76.9103
2023-05-19T15:55:24.150Z,76.9104
2023-05-19T15:56:24.263Z,76.8869
2023-05-19T15:57:25.356Z,76.8455
2023-05-19T15:58:26.185Z,76.8041
2023-05-19T15:59:27.389Z,76.7610
2023-05-19T16:01:28.122Z,76.6069
2023-05-19T16:03:27.714Z,76.4728
2023-05-19T16:04:28.788Z,76.3980
2023-05-19T16:05:29.093Z,76.2971
2023-05-19T16:06:30.079Z,76.2015
2023-05-19T16:07:30.475Z,76.1089
2023-05-19T16:08:31.009Z,76.0124
2023-05-19T16:09:32.227Z,75.9284
2023-05-19T16:10:32.898Z,75.8541
2023-05-19T16:12:33.824Z,75.7125
2023-05-19T16:13:35.112Z,75.6371
2023-05-19T16:15:35.602Z,75.4569
2023-05-19T16:16:37.052Z,75.3511
2023-05-19T16:17:36.848Z,75.2447
2023-05-19T16:18:38.378Z,75.1321
2023-05-19T16:19:38.385Z,75.0185
2023-05-19T16:21:39.128Z,74.7397
2023-05-19T16:32:44.369Z,73.3635
2023-05-19T16:33:44.597Z,73.3917
2023-05-19T16:34:45.581Z,73.4548
2023-05-19T16:36:46.830Z,73.6474
2023-05-19T16:38:47.891Z,73.8200
2023-05-19T16:39:48.370Z,73.9177
2023-05-19T16:45:52.597Z,74.4439
2023-05-19T16:46:53.309Z,74.5058
2023-05-19T16:47:54.677Z,74.5872
2023-05-19T16:48:55.825Z,74.6772
2023-05-19T16:49:56.017Z,74.7625
2023-05-19T16:51:57.154Z,74.9190
2023-05-19T16:52:57.500Z,75.0100
2023-05-19T16:53:57.664Z,75.1001
2023-05-19T16:56:00.451Z,75.2969
2023-05-19T16:57:01.493Z,75.3954
2023-05-19T16:59:02.118Z,75.5976
2023-05-19T17:00:03.302Z,75.7080
2023-05-19T17:01:03.774Z,75.8192
2023-05-19T17:02:05.117Z,75.9242
2023-05-19T17:03:05.368Z,76.0355
2023-05-19T17:04:05.577Z,76.1343
2023-05-19T17:05:07.186Z,76.2240
2023-05-19T17:06:07.431Z,76.3062
2023-05-19T17:08:08.374Z,76.4596
2023-05-19T17:09:09.267Z,76.5347
2023-05-19T17:10:10.599Z,76.6096
2023-05-19T17:11:11.458Z,76.6848
2023-05-19T17:12:11.808Z,76.7531
2023-05-19T17:13:12.995Z,76.8245
2023-05-19T17:14:14.205Z,76.8870
2023-05-19T17:15:15.035Z,76.9553
2023-05-19T17:16:15.913Z,77.0200
2023-05-19T17:17:16.045Z,77.0844
2023-05-19T17:18:16.880Z,77.1428
2023-05-19T17:19:17.836Z,77.2050
2023-05-19T17:20:18.382Z,77.2640
2023-05-19T17:21:19.589Z,77.3186
2023-05-19T17:22:20.178Z,77.3699
2023-05-19T17:23:20.867Z,77.4309
2023-05-19T17:24:21.775Z,77.4983
2023-05-19T17:25:22.146Z,77.5562
2023-05-19T17:26:23.153Z,77.6269
2023-05-19T17:27:24.039Z,77.6858
2023-05-19T17:32:26.185Z,77.8898
2023-05-19T17:34:27.470Z,77.9993
2023-05-19T17:35:28.657Z,78.0504
2023-05-19T17:36:29.042Z,78.1124
2023-05-19T17:37:30.524Z,78.1652
2023-05-19T17:40:32.008Z,78.3388
2023-05-19T17:42:32.547Z,78.4932
2023-05-19T17:43:32.809Z,78.5629
2023-05-19T17:45:36.439Z,78.6941
2023-05-19T17:54:41.864Z,79.1560
2023-05-19T17:55:42.398Z,79.1984
2023-05-19T17:56:43.939Z,79.2319
2023-05-19T17:57:45.662Z,79.2743
2023-05-19T17:58:45.975Z,79.3107
2023-05-19T17:59:46.099Z,79.3477
2023-05-19T18:00:47.752Z,79.3888
2023-05-19T18:01:47.913Z,79.4235
2023-05-19T18:02:48.404Z,79.4607
2023-05-19T18:03:50.013Z,79.4840
2023-05-19T18:08:52.853Z,79.5818
2023-05-19T18:09:53.215Z,79.6029
2023-05-19T18:11:56.193Z,79.6646
2023-05-19T18:12:57.428Z,79.6804
2023-05-19T18:14:59.101Z,79.7271
2023-05-19T18:16:00.268Z,79.7527
2023-05-19T18:17:00.519Z,79.7878
2023-05-19T18:18:01.099Z,79.8140
2023-05-19T18:19:01.952Z,79.8360
2023-05-19T18:30:09.731Z,80.1910
2023-05-19T18:31:10.669Z,80.2194
2023-05-19T18:32:11.097Z,80.2501
2023-05-19T18:33:12.109Z,80.2837
2023-05-19T18:34:11.496Z,80.3127
2023-05-19T18:35:12.644Z,80.3361
2023-05-19T18:36:13.963Z,80.3704
2023-05-19T18:37:14.920Z,80.4128
2023-05-19T18:38:15.103Z,80.4442
2023-05-19T18:39:16.115Z,80.4752
2023-05-19T18:40:16.550Z,80.5112
2023-05-19T18:41:16.820Z,80.5283
2023-05-19T18:43:20.345Z,80.5939
2023-05-19T18:44:21.438Z,80.6194
2023-05-19T18:53:28.614Z,80.8340
2023-05-19T18:54:29.595Z,80.8576
2023-05-19T18:56:30.283Z,80.9128
2023-05-19T18:57:30.793Z,80.9534
2023-05-19T18:59:33.852Z,81.0012
2023-05-19T19:00:35.269Z,81.0328
2023-05-19T19:01:35.292Z,81.0577
2023-05-19T19:02:36.335Z,81.0764
2023-05-19T19:03:37.781Z,81.1048
2023-05-19T19:04:38.247Z,81.1264
2023-05-19T19:05:39.609Z,81.1502
2023-05-19T19:06:42.014Z,81.1668
2023-05-19T19:15:47.580Z,81.3804
2023-05-19T19:16:48.699Z,81.4053
2023-05-19T19:17:49.625Z,81.4331
2023-05-19T19:18:50.687Z,81.4565
2023-05-19T19:19:51.281Z,81.4870
2023-05-19T19:20:51.487Z,81.5134
2023-05-19T19:21:52.365Z,81.5400
2023-05-19T19:22:52.750Z,81.5705
2023-05-19T19:23:53.946Z,81.5943
2023-05-19T19:24:55.121Z,81.6193
2023-05-19T19:25:55.653Z,81.6457
2023-05-19T19:26:57.080Z,81.6618
2023-05-19T19:27:57.322Z,81.6872
2023-05-19T19:28:57.414Z,81.6988
2023-05-19T19:29:58.302Z,81.7149
2023-05-19T19:36:03.797Z,81.8808
2023-05-19T19:37:05.272Z,81.9043
2023-05-19T19:39:06.154Z,81.9580
2023-05-19T19:40:06.243Z,81.9782
2023-05-19T19:41:07.240Z,81.9934
2023-05-19T19:42:08.415Z,82.0105
2023-05-19T19:43:09.064Z,82.0373
2023-05-19T19:44:10.290Z,82.0656
2023-05-19T19:45:12.496Z,82.0992
2023-05-19T19:46:12.271Z,82.1360
2023-05-19T19:47:12.783Z,82.1575
2023-05-19T19:48:13.091Z,82.1613
2023-05-19T19:49:13.959Z,82.1777
2023-05-19T19:50:15.061Z,82.1968
2023-05-19T19:51:16.294Z,82.2199
2023-05-19T19:52:17.636Z,82.2400
2023-05-19T19:58:21.215Z,82.3170
2023-05-19T19:59:21.571Z,82.3292
2023-05-19T20:00:22.403Z,82.3455
2023-05-19T20:01:22.869Z,82.3520